Time;durP1;ratioP1;P1;durP2;ratioP2;P2;SDS_P1;SDS_P2;PMS_P1;PMS_P2;Temp;Humidity;BMP_temperature;BMP_pressure;BME280_temperature;BME280_humidity;BME280_pressure;Samples;Min_cycle;Max_cycle;Signal;HPM_P1;HPM_P2
2023/03/29 00:00:07;;;;;;;5.22;2.60;;;;;;;5.64;79.96;101592.13;5063649;28;20722;-76
2023/03/29 00:02:37;;;;;;;7.68;2.72;;;;;;;5.66;79.88;101593.88;5065598;28;20040;-76
2023/03/29 00:05:06;;;;;;;5.05;2.60;;;;;;;5.68;79.89;101589.53;5062817;28;20060;-77
2023/03/29 00:07:33;;;;;;;6.75;3.10;;;;;;;5.71;79.78;101586.91;5065945;28;20509;-76
2023/03/29 00:10:03;;;;;;;4.95;2.53;;;;;;;5.72;79.87;101586.03;5063141;28;20053;-76
2023/03/29 00:12:31;;;;;;;5.47;2.63;;;;;;;5.74;79.84;101576.44;5064783;28;20132;-75
2023/03/29 00:14:58;;;;;;;6.65;2.80;;;;;;;5.73;79.62;101574.69;5066036;28;20912;-77
2023/03/29 00:17:25;;;;;;;8.40;3.00;;;;;;;5.74;79.54;101584.28;5066333;28;20041;-77
2023/03/29 00:19:52;;;;;;;7.85;2.97;;;;;;;5.75;79.64;101572.97;5064053;28;20051;-77
2023/03/29 00:22:20;;;;;;;5.22;2.70;;;;;;;5.80;79.57;101564.25;5065997;28;20049;-77
2023/03/29 00:24:47;;;;;;;5.88;2.60;;;;;;;5.81;79.79;101579.94;5063671;28;20562;-77
2023/03/29 00:27:15;;;;;;;4.35;2.50;;;;;;;5.83;79.73;101565.13;5065750;28;20125;-78
2023/03/29 00:29:42;;;;;;;5.25;3.00;;;;;;;5.84;79.61;101568.59;5063661;28;20051;-78
2023/03/29 00:32:09;;;;;;;5.93;2.80;;;;;;;5.84;79.58;101561.66;5062451;28;20041;-78
2023/03/29 00:34:36;;;;;;;5.00;2.67;;;;;;;5.84;79.56;101556.41;5059358;28;20045;-78
2023/03/29 00:37:07;;;;;;;4.43;2.88;;;;;;;5.85;79.42;101565.13;5064874;28;20723;-76
2023/03/29 00:39:35;;;;;;;6.70;2.75;;;;;;;5.83;79.53;101570.38;5078494;28;20044;-78
2023/03/29 00:42:03;;;;;;;4.78;2.70;;;;;;;5.86;79.53;101562.50;5064876;28;20060;-77
2023/03/29 00:44:56;;;;;;;6.07;3.10;;;;;;;5.89;79.51;101559.03;5066035;28;20045;-77
2023/03/29 00:47:32;;;;;;;4.78;2.78;;;;;;;5.91;79.45;101546.78;5067306;28;20490;-77
2023/03/29 00:50:21;;;;;;;4.95;3.03;;;;;;;5.90;79.68;101553.78;5062535;28;20041;-76
2023/03/29 00:53:20;;;;;;;5.35;3.00;;;;;;;5.90;79.60;101548.56;5065869;28;20064;-77
2023/03/29 00:55:56;;;;;;;6.93;2.80;;;;;;;5.93;79.55;101541.56;5062984;28;20611;-77
2023/03/29 00:58:46;;;;;;;6.05;2.97;;;;;;;5.94;79.54;101543.31;5067122;28;20041;-77
2023/03/29 01:01:20;;;;;;;5.07;2.70;;;;;;;5.96;79.65;101537.22;5065484;28;20057;-77
2023/03/29 01:04:03;;;;;;;5.33;2.73;;;;;;;6.00;79.47;101544.19;5068678;28;20480;-77
2023/03/29 01:06:38;;;;;;;4.65;2.55;;;;;;;6.02;79.32;101533.75;5055351;28;20049;-78
2023/03/29 01:09:11;;;;;;;5.38;2.78;;;;;;;6.03;79.27;101531.13;5067735;28;20500;-78
2023/03/29 01:11:52;;;;;;;7.25;3.08;;;;;;;6.03;79.28;101528.50;5067381;28;20045;-78
2023/03/29 01:14:34;;;;;;;5.80;2.80;;;;;;;6.03;79.25;101525.03;5064286;28;20127;-78
2023/03/29 01:17:01;;;;;;;8.57;3.10;;;;;;;6.04;79.31;101518.94;5064953;28;20076;-78
2023/03/29 01:19:37;;;;;;;6.82;3.40;;;;;;;6.00;79.32;101514.56;5065291;28;20056;-76
2023/03/29 01:22:27;;;;;;;5.47;3.00;;;;;;;6.03;79.26;101509.31;5058291;28;20041;-76
2023/03/29 01:25:11;;;;;;;5.50;2.95;;;;;;;6.04;79.41;101511.06;5066247;28;20528;-76
2023/03/29 01:28:09;;;;;;;6.43;3.10;;;;;;;6.03;79.47;101507.56;5064102;28;20071;-77
2023/03/29 01:30:54;;;;;;;5.90;3.08;;;;;;;6.03;79.54;101498.84;5067852;28;20274;-77
2023/03/29 01:33:32;;;;;;;4.10;2.85;;;;;;;6.07;79.43;101503.19;5066742;28;20096;-78
2023/03/29 01:36:22;;;;;;;5.15;3.28;;;;;;;6.09;79.54;101490.97;5066623;28;20145;-78
2023/03/29 01:38:55;;;;;;;4.80;2.90;;;;;;;6.10;79.68;101487.50;5067557;28;20079;-79
2023/03/29 01:41:44;;;;;;;5.07;2.80;;;;;;;6.11;79.44;101488.34;5065617;28;20052;-78
2023/03/29 01:44:55;;;;;;;4.68;3.15;;;;;;;6.11;79.36;101489.25;5057066;28;20083;-79
2023/03/29 01:47:46;;;;;;;5.72;2.67;;;;;;;6.11;79.46;101480.50;5041646;28;20643;-78
2023/03/29 01:50:36;;;;;;;6.90;3.03;;;;;;;6.13;79.46;101478.75;5076147;28;20049;-78
2023/03/29 01:53:32;;;;;;;6.68;2.90;;;;;;;6.14;79.49;101481.41;5068343;28;20529;-78
2023/03/29 01:56:36;;;;;;;4.57;2.97;;;;;;;6.16;79.62;101474.38;5065333;28;20079;-79
2023/03/29 01:59:13;;;;;;;5.68;3.00;;;;;;;6.17;79.59;101468.28;5057120;28;20537;-77
2023/03/29 02:01:48;;;;;;;5.35;2.83;;;;;;;6.20;79.61;101470.03;5068620;28;20807;-78
2023/03/29 02:04:24;;;;;;;5.05;2.75;;;;;;;6.22;79.65;101471.78;5067242;28;20136;-78
2023/03/29 02:06:56;;;;;;;4.95;2.80;;;;;;;6.26;79.69;101469.16;5067993;28;20033;-78
2023/03/29 02:09:23;;;;;;;7.75;2.60;;;;;;;6.28;79.31;101463.03;5068955;28;20045;-78
2023/03/29 02:11:52;;;;;;;4.15;2.42;;;;;;;6.31;79.23;101467.38;5066632;28;20852;-78
2023/03/29 02:14:20;;;;;;;4.45;2.50;;;;;;;6.34;79.41;101465.63;5068741;28;20043;-79
2023/03/29 02:16:48;;;;;;;4.60;2.70;;;;;;;6.38;79.32;101474.34;5067503;28;20516;-77
2023/03/29 02:19:18;;;;;;;5.43;2.65;;;;;;;6.37;79.21;101464.72;5067323;28;20099;-78
2023/03/29 02:21:57;;;;;;;4.50;2.80;;;;;;;6.40;79.62;101463.88;5067167;28;20053;-78
2023/03/29 02:24:27;;;;;;;4.68;2.75;;;;;;;6.39;79.86;101463.00;5059515;28;20045;-77
2023/03/29 02:26:54;;;;;;;5.20;3.13;;;;;;;6.41;80.15;101460.38;5065829;28;20044;-77
2023/03/29 02:29:21;;;;;;;6.90;2.78;;;;;;;6.40;80.13;101450.78;5054775;28;20544;-77
2023/03/29 02:32:03;;;;;;;5.00;3.10;;;;;;;6.38;80.65;101458.63;5083584;28;20095;-77
2023/03/29 02:34:46;;;;;;;6.55;3.10;;;;;;;6.38;80.66;101458.63;5067516;28;20821;-77
2023/03/29 02:37:19;;;;;;;4.00;2.90;;;;;;;6.34;81.19;101451.66;5066536;28;20045;-77
2023/03/29 02:39:51;;;;;;;9.57;3.38;;;;;;;6.32;81.38;101448.19;5066257;28;20044;-77
2023/03/29 02:42:19;;;;;;;6.45;3.10;;;;;;;6.28;81.53;101447.31;5066971;28;20139;-77
2023/03/29 02:44:53;;;;;;;7.00;3.08;;;;;;;6.25;81.67;101441.22;5059719;28;20080;-77
2023/03/29 02:47:30;;;;;;;6.23;3.53;;;;;;;6.20;82.05;101443.84;5062105;28;20049;-77
2023/03/29 02:49:59;;;;;;;8.18;3.22;;;;;;;6.19;82.32;101456.06;5078198;28;20053;-78
2023/03/29 02:52:38;;;;;;;6.35;3.20;;;;;;;6.17;82.48;101441.25;5067277;28;20045;-78
2023/03/29 02:55:15;;;;;;;4.78;2.92;;;;;;;6.17;82.74;101446.47;5066070;28;20132;-77
2023/03/29 02:57:42;;;;;;;4.82;3.20;;;;;;;6.15;83.09;101433.41;5065846;28;20417;-78
2023/03/29 03:00:13;;;;;;;6.07;3.20;;;;;;;6.13;83.23;101437.75;5067629;28;20041;-77
2023/03/29 03:02:40;;;;;;;6.07;3.38;;;;;;;6.13;83.38;101437.75;5062554;28;20045;-77
2023/03/29 03:05:09;;;;;;;11.27;3.58;;;;;;;6.12;83.59;101429.88;5068852;28;20391;-75
2023/03/29 03:07:39;;;;;;;6.85;3.30;;;;;;;6.10;83.96;101426.44;5067566;28;20048;-76
2023/03/29 03:10:09;;;;;;;7.07;3.53;;;;;;;6.08;84.27;101422.94;5065178;28;20049;-76
2023/03/29 03:12:37;;;;;;;5.43;3.28;;;;;;;6.05;84.45;101416.81;5062431;28;20501;-76
2023/03/29 03:15:05;;;;;;;6.20;3.55;;;;;;;6.04;84.62;101420.31;5063846;28;20135;-76
2023/03/29 03:17:32;;;;;;;6.80;3.10;;;;;;;6.04;84.59;101412.47;5063810;28;20132;-76
2023/03/29 03:19:59;;;;;;;6.75;3.40;;;;;;;6.03;84.95;101405.47;5065550;28;20845;-79
2023/03/29 03:22:27;;;;;;;6.30;3.50;;;;;;;6.02;85.06;101401.13;5063751;28;20049;-79
2023/03/29 03:24:55;;;;;;;5.45;3.38;;;;;;;6.04;85.05;101393.28;5069491;28;20891;-78
2023/03/29 03:27:22;;;;;;;4.65;2.90;;;;;;;6.04;85.08;101391.53;5065573;28;20037;-77
2023/03/29 03:29:49;;;;;;;6.75;3.42;;;;;;;6.05;85.08;101384.56;5064838;28;20432;-77
2023/03/29 03:32:16;;;;;;;4.20;2.92;;;;;;;6.05;85.26;101377.56;5067739;28;20124;-77
2023/03/29 03:35:07;;;;;;;6.43;3.35;;;;;;;6.06;85.47;101367.94;5064287;28;20041;-77
2023/03/29 03:37:34;;;;;;;7.70;3.10;;;;;;;6.06;85.48;101371.44;5062200;28;20046;-77
2023/03/29 03:40:02;;;;;;;4.60;3.28;;;;;;;6.06;85.62;101374.06;5059112;28;21000;-77
2023/03/29 03:42:29;;;;;;;5.45;3.22;;;;;;;6.07;85.48;101372.31;5066361;28;20051;-78
2023/03/29 03:44:57;;;;;;;5.25;3.28;;;;;;;6.07;85.59;101367.06;5064475;28;20547;-74
2023/03/29 03:47:28;;;;;;;6.60;3.30;;;;;;;6.09;85.77;101374.94;5057387;28;20509;-74
2023/03/29 03:49:57;;;;;;;6.78;3.13;;;;;;;6.08;85.94;101370.59;5055607;28;20049;-75
2023/03/29 03:52:25;;;;;;;9.23;3.35;;;;;;;6.08;85.86;101379.28;5078456;28;20102;-75
2023/03/29 03:54:52;;;;;;;6.13;3.50;;;;;;;6.08;85.78;101368.81;5065891;28;20125;-75
2023/03/29 03:57:43;;;;;;;5.43;3.90;;;;;;;6.07;85.85;101367.06;5055253;28;20060;-75
2023/03/29 04:00:20;;;;;;;5.30;3.50;;;;;;;6.06;86.18;101370.56;5065237;28;20041;-79
2023/03/29 04:03:09;;;;;;;8.10;3.30;;;;;;;6.06;85.94;101379.31;5067766;28;20120;-79
2023/03/29 04:05:43;;;;;;;7.82;3.47;;;;;;;6.06;86.20;101376.69;5080147;28;20060;-81
2023/03/29 04:08:12;;;;;;;6.03;3.40;;;;;;;6.06;86.33;101376.69;5063526;28;20925;-80
2023/03/29 04:11:06;;;;;;;5.65;3.47;;;;;;;6.07;86.21;101367.06;5066931;28;20052;-80
2023/03/29 04:13:36;;;;;;;6.85;3.92;;;;;;;6.08;86.35;101376.69;5064298;28;20045;-79
2023/03/29 04:16:20;;;;;;;6.20;3.40;;;;;;;6.08;86.58;101375.81;5065686;28;20041;-80
2023/03/29 04:18:48;;;;;;;9.68;3.50;;;;;;;6.09;86.61;101374.94;5064216;28;20137;-78
2023/03/29 04:21:15;;;;;;;6.00;3.78;;;;;;;6.11;86.59;101378.41;5066410;28;20045;-77
2023/03/29 04:23:47;;;;;;;5.35;3.63;;;;;;;6.11;86.65;101379.28;5063997;28;20210;-77
2023/03/29 04:26:16;;;;;;;8.48;3.70;;;;;;;6.12;86.90;101373.19;5061230;28;20124;-77
2023/03/29 04:28:49;;;;;;;7.68;3.28;;;;;;;6.13;86.85;101366.19;5048384;28;20527;-76
2023/03/29 04:31:21;;;;;;;5.97;3.20;;;;;;;6.14;86.88;101363.59;5064483;28;20049;-78
2023/03/29 04:34:21;;;;;;;9.73;3.53;;;;;;;6.17;86.86;101362.69;5057104;28;20121;-78
2023/03/29 04:36:52;;;;;;;5.95;3.40;;;;;;;6.18;87.07;101361.81;5059422;28;20052;-78
2023/03/29 04:39:30;;;;;;;5.90;3.40;;;;;;;6.23;87.10;101349.56;5061540;28;20151;-78
2023/03/29 04:41:58;;;;;;;6.32;3.30;;;;;;;6.26;87.03;101354.81;5062660;28;20082;-78
2023/03/29 04:44:28;;;;;;;5.38;3.17;;;;;;;6.30;86.63;101343.44;5061745;28;20053;-79
2023/03/29 04:46:59;;;;;;;7.28;2.95;;;;;;;6.37;87.59;101342.53;5063957;28;20045;-78
2023/03/29 04:49:46;;;;;;;9.10;3.22;;;;;;;6.65;88.32;101342.38;5062597;28;20052;-78
2023/03/29 04:52:21;;;;;;;5.85;3.25;;;;;;;6.79;87.14;101351.91;5063930;28;20049;-78
2023/03/29 04:54:51;;;;;;;6.95;3.33;;;;;;;6.84;86.29;101347.50;5061754;28;20051;-79
2023/03/29 04:57:32;;;;;;;4.80;2.60;;;;;;;6.94;86.04;101343.94;5065522;28;20041;-77
2023/03/29 05:00:19;;;;;;;6.15;2.88;;;;;;;7.13;85.70;101338.53;5064358;28;20041;-78
2023/03/29 05:03:13;;;;;;;8.23;3.22;;;;;;;7.31;85.09;101337.53;5066092;28;20533;-78
2023/03/29 05:05:53;;;;;;;6.07;3.08;;;;;;;7.41;83.92;101331.31;5075077;28;20421;-79
2023/03/29 05:08:20;;;;;;;6.95;3.20;;;;;;;7.41;83.27;101338.31;5062027;28;20092;-78
2023/03/29 05:11:10;;;;;;;7.13;2.80;;;;;;;7.39;82.57;101345.34;5055362;28;20048;-77
2023/03/29 05:13:37;;;;;;;7.00;3.13;;;;;;;7.35;82.26;101341.00;5062927;28;20099;-79
2023/03/29 05:16:06;;;;;;;8.43;3.67;;;;;;;7.31;82.24;101345.41;5059279;28;20745;-80
2023/03/29 05:18:34;;;;;;;5.68;3.10;;;;;;;7.28;82.02;101335.81;5049410;28;20045;-79
2023/03/29 05:21:03;;;;;;;7.85;3.15;;;;;;;7.22;82.11;101332.38;5062581;28;20041;-79
2023/03/29 05:23:33;;;;;;;6.97;3.10;;;;;;;7.15;82.22;101339.41;5065027;28;20291;-79
2023/03/29 05:26:22;;;;;;;9.25;3.22;;;;;;;7.05;82.14;101341.25;5065720;28;20536;-79
2023/03/29 05:28:52;;;;;;;6.40;3.08;;;;;;;6.98;82.43;101344.78;5062642;28;20061;-79
2023/03/29 05:31:19;;;;;;;6.00;3.05;;;;;;;6.93;82.66;101336.94;5060042;28;20051;-79
2023/03/29 05:33:51;;;;;;;5.28;3.03;;;;;;;6.92;82.81;101336.97;5064342;28;20052;-79
2023/03/29 05:36:20;;;;;;;11.43;3.28;;;;;;;6.91;82.68;101341.34;5064853;28;20551;-79
2023/03/29 05:38:49;;;;;;;11.90;3.53;;;;;;;6.89;82.88;101331.72;5064076;28;20045;-79
2023/03/29 05:41:20;;;;;;;8.40;3.10;;;;;;;6.89;82.73;101324.75;5058288;28;20101;-78
2023/03/29 05:44:20;;;;;;;6.82;3.00;;;;;;;6.87;82.70;101334.38;5065734;28;20041;-79
2023/03/29 05:46:53;;;;;;;7.70;3.40;;;;;;;6.87;82.70;101341.38;5066399;28;20429;-80
2023/03/29 05:49:20;;;;;;;5.82;3.35;;;;;;;6.87;82.79;101337.00;5064256;28;20274;-79
2023/03/29 05:52:08;;;;;;;9.02;3.53;;;;;;;6.89;82.94;101340.50;5060569;28;20639;-79
2023/03/29 05:54:36;;;;;;;8.18;3.78;;;;;;;6.93;82.75;101344.81;5049335;28;20048;-79
2023/03/29 05:57:05;;;;;;;6.80;3.03;;;;;;;6.94;82.78;101340.44;5063673;28;20037;-78
2023/03/29 05:59:32;;;;;;;9.00;3.40;;;;;;;6.96;82.61;101344.78;5063582;28;20049;-78
2023/03/29 06:02:02;;;;;;;8.32;3.33;;;;;;;6.98;82.52;101350.00;5063818;28;20077;-79
2023/03/29 06:04:30;;;;;;;7.35;3.30;;;;;;;7.01;82.88;101354.38;5060086;28;20116;-78
2023/03/29 06:07:30;;;;;;;6.18;3.08;;;;;;;7.04;82.65;101352.59;5053928;28;20458;-78
2023/03/29 06:10:22;;;;;;;5.53;3.40;;;;;;;7.07;82.55;101352.56;5055302;28;20065;-79
2023/03/29 06:12:56;;;;;;;5.40;2.78;;;;;;;7.09;82.50;101342.94;5063935;28;20060;-78
2023/03/29 06:15:25;;;;;;;6.18;3.42;;;;;;;7.13;82.51;101342.06;5065530;28;20064;-79
2023/03/29 06:18:02;;;;;;;7.25;3.30;;;;;;;7.17;82.46;101342.88;5067183;28;20581;-79
2023/03/29 06:20:29;;;;;;;9.73;3.58;;;;;;;7.20;82.23;101340.25;5066850;28;20102;-79
2023/03/29 06:23:02;;;;;;;6.68;3.08;;;;;;;7.26;82.31;101344.56;5052419;28;20053;-78
2023/03/29 06:25:30;;;;;;;8.23;3.42;;;;;;;7.29;82.20;101344.53;5070890;28;20041;-79
2023/03/29 06:27:57;;;;;;;7.40;2.97;;;;;;;7.35;82.32;101344.50;5066637;28;20045;-79
2023/03/29 06:30:24;;;;;;;8.23;3.92;;;;;;;7.41;81.98;101343.56;5064834;28;20044;-78
2023/03/29 06:32:54;;;;;;;9.65;5.43;;;;;;;7.44;82.03;101346.16;5067484;28;20049;-79
2023/03/29 06:35:49;;;;;;;14.70;4.43;;;;;;;7.52;81.93;101348.72;5052822;28;20051;-79
2023/03/29 06:38:21;;;;;;;10.90;6.18;;;;;;;7.56;81.93;101353.91;5080967;28;20506;-79
2023/03/29 06:41:07;;;;;;;;;;;;;;;7.58;82.00;101357.41;5049948;28;20050;-79
2023/03/29 06:43:53;;;;;;;13.75;6.38;;;;;;;7.65;81.99;101347.72;5048958;28;19924;-79
2023/03/29 06:46:24;;;;;;;10.43;6.70;;;;;;;7.70;81.71;101355.53;5060887;28;20084;-78
2023/03/29 06:49:00;;;;;;;11.85;7.45;;;;;;;7.73;81.67;101348.50;5067670;28;20072;-78
2023/03/29 06:51:42;;;;;;;11.20;7.50;;;;;;;7.79;81.46;101344.94;5071694;28;20053;-79
2023/03/29 06:54:10;;;;;;;11.00;7.10;;;;;;;7.84;81.46;101345.75;5076888;28;20045;-79
2023/03/29 06:56:46;;;;;;;;;;;;;;;7.86;81.56;101341.34;5083036;28;20051;-79
2023/03/29 06:59:19;;;;;;;12.30;6.53;;;;;;;7.91;81.59;101350.06;5066380;28;19925;-79
2023/03/29 07:01:56;;;;;;;10.07;5.60;;;;;;;7.97;81.50;101356.13;5066399;28;20481;-78
2023/03/29 07:05:00;;;;;;;12.48;8.15;;;;;;;8.00;81.44;101356.94;5058197;28;20319;-79
2023/03/29 07:07:42;;;;;;;14.57;6.35;;;;;;;8.03;81.05;101362.19;5067351;28;20044;-79
2023/03/29 07:10:28;;;;;;;14.93;8.73;;;;;;;8.08;81.11;101367.38;5067337;28;20052;-79
2023/03/29 07:13:22;;;;;;;13.27;7.80;;;;;;;8.13;81.06;101364.69;5058592;28;20037;-79
2023/03/29 07:15:51;;;;;;;9.63;7.03;;;;;;;8.18;80.87;101349.78;5065812;28;20450;-80
2023/03/29 07:18:21;;;;;;;11.05;7.82;;;;;;;8.24;80.80;101357.56;5067424;28;20124;-79
2023/03/29 07:20:48;;;;;;;11.43;6.60;;;;;;;8.31;80.75;101359.22;5066511;28;20056;-78
2023/03/29 07:23:16;;;;;;;8.23;5.28;;;;;;;8.40;80.76;101353.84;5067393;28;20128;-78
2023/03/29 07:25:45;;;;;;;8.50;4.75;;;;;;;8.48;80.70;101359.03;5066656;28;20052;-77
2023/03/29 07:28:13;;;;;;;10.82;3.97;;;;;;;8.59;80.74;101355.38;5066874;28;20150;-78
2023/03/29 07:30:40;;;;;;;9.38;3.90;;;;;;;8.68;80.68;101347.38;5066632;28;20048;-78
2023/03/29 07:33:13;;;;;;;8.68;4.82;;;;;;;8.79;80.18;101348.09;5066188;28;20095;-78
2023/03/29 07:35:56;;;;;;;11.45;4.50;;;;;;;8.91;80.00;101354.91;5070962;28;20047;-77
2023/03/29 07:38:24;;;;;;;6.95;3.80;;;;;;;9.01;79.78;101360.91;5072422;28;20045;-78
2023/03/29 07:40:58;;;;;;;9.43;4.65;;;;;;;9.07;79.80;101368.69;5064751;28;20111;-78
2023/03/29 07:43:41;;;;;;;8.40;4.50;;;;;;;9.19;79.55;101364.13;5088675;28;20083;-78
2023/03/29 07:46:10;;;;;;;9.82;3.75;;;;;;;9.29;79.41;101366.63;5066449;28;20049;-79
2023/03/29 07:48:38;;;;;;;7.63;3.75;;;;;;;9.38;79.43;101377.88;5071796;28;20052;-78
2023/03/29 07:51:08;;;;;;;5.18;3.22;;;;;;;9.43;79.05;101370.75;5067024;28;20045;-79
2023/03/29 07:53:48;;;;;;;6.68;3.78;;;;;;;9.46;79.02;101379.47;5066130;28;20124;-78
2023/03/29 07:56:41;;;;;;;8.85;3.38;;;;;;;9.50;78.54;101367.16;5057802;28;20061;-78
2023/03/29 07:59:11;;;;;;;9.93;4.20;;;;;;;9.56;78.63;101380.19;5067805;28;20183;-79
2023/03/29 08:01:41;;;;;;;8.98;3.63;;;;;;;9.60;78.63;101379.25;5067996;28;20608;-78
2023/03/29 08:04:31;;;;;;;9.93;3.55;;;;;;;9.65;78.61;101379.16;5087908;28;20064;-79
2023/03/29 08:07:18;;;;;;;7.25;3.40;;;;;;;9.70;78.36;101384.34;5087998;28;20951;-79
2023/03/29 08:10:07;;;;;;;10.82;3.40;;;;;;;9.75;78.09;101380.75;5088136;28;20048;-79
2023/03/29 08:12:58;;;;;;;7.20;3.63;;;;;;;9.84;78.23;101384.09;5087068;28;20055;-78
2023/03/29 08:15:38;;;;;;;6.00;3.65;;;;;;;9.91;77.92;101377.81;5086196;28;20048;-78
2023/03/29 08:18:17;;;;;;;7.38;3.60;;;;;;;9.95;77.74;101371.59;5068997;28;20095;-78
2023/03/29 08:20:44;;;;;;;12.32;3.70;;;;;;;10.02;77.86;101374.97;5067468;28;20049;-78
2023/03/29 08:23:11;;;;;;;9.52;3.42;;;;;;;10.08;77.67;101374.84;5061520;28;20038;-78
2023/03/29 08:25:38;;;;;;;7.72;3.63;;;;;;;10.13;77.94;101367.72;5047331;28;20042;-78
2023/03/29 08:28:05;;;;;;;7.50;3.63;;;;;;;10.14;77.93;101369.44;5047363;28;20045;-78
2023/03/29 08:30:44;;;;;;;7.47;3.88;;;;;;;10.17;78.04;101374.66;5064699;28;20049;-78
2023/03/29 08:33:12;;;;;;;8.82;4.22;;;;;;;10.16;77.89;101375.56;5101013;28;20436;-78
2023/03/29 08:35:40;;;;;;;8.02;3.88;;;;;;;10.16;77.94;101372.06;5086930;28;20049;-78
2023/03/29 08:38:20;;;;;;;6.60;3.60;;;;;;;10.09;77.92;101374.81;5086109;28;20040;-77
2023/03/29 08:40:49;;;;;;;7.60;3.60;;;;;;;10.03;78.13;101374.06;5079501;28;20053;-78
2023/03/29 08:43:57;;;;;;;8.60;3.90;;;;;;;9.97;78.42;101375.03;5077314;28;20124;-78
2023/03/29 08:47:44;;;;;;;8.90;3.92;;;;;;;9.93;78.90;101368.97;5049069;28;20060;-78
2023/03/29 08:50:13;;;;;;;11.43;4.45;;;;;;;9.98;79.38;101374.16;5057766;28;20088;-78
2023/03/29 08:52:56;;;;;;;8.82;4.60;;;;;;;10.03;79.66;101368.78;5064627;28;20045;-78
2023/03/29 08:56:10;;;;;;;9.38;4.18;;;;;;;10.20;80.13;101365.81;5022856;28;20090;-78
2023/03/29 08:59:16;;;;;;;7.25;3.85;;;;;;;10.38;80.23;101357.56;5007963;28;20048;-79
2023/03/29 09:01:46;;;;;;;8.07;3.90;;;;;;;10.67;80.40;101363.09;5058018;28;20053;-79
2023/03/29 09:04:30;;;;;;;7.97;4.28;;;;;;;10.86;80.11;101360.94;5067701;28;20073;-78
2023/03/29 09:07:10;;;;;;;8.93;4.30;;;;;;;10.96;80.03;101369.47;5066737;28;20088;-78
2023/03/29 09:09:42;;;;;;;11.27;4.32;;;;;;;11.14;80.25;101373.47;5066258;28;20089;-78
2023/03/29 09:12:41;;;;;;;15.05;4.50;;;;;;;11.28;79.86;101366.09;5064894;28;20041;-78
2023/03/29 09:15:14;;;;;;;7.40;4.15;;;;;;;11.28;79.66;101367.84;5066682;28;20100;-78
2023/03/29 09:18:10;;;;;;;8.90;4.00;;;;;;;11.34;79.75;101358.00;5067203;28;20095;-79
2023/03/29 09:20:49;;;;;;;8.43;4.35;;;;;;;11.42;79.81;101365.75;5071167;28;20049;-79
2023/03/29 09:23:43;;;;;;;10.15;4.40;;;;;;;11.53;79.47;101364.59;5069311;28;20049;-79
2023/03/29 09:26:43;;;;;;;9.95;4.68;;;;;;;11.57;79.27;101364.47;5064620;28;20084;-78
2023/03/29 09:30:09;;;;;;;8.60;4.32;;;;;;;11.62;78.93;101364.34;5076131;28;20053;-79
2023/03/29 09:33:14;;;;;;;6.22;3.78;;;;;;;11.75;78.92;101352.53;5068760;28;20123;-79
2023/03/29 09:36:22;;;;;;;11.70;4.28;;;;;;;12.02;78.76;101351.84;5065788;28;20136;-78
2023/03/29 09:38:53;;;;;;;8.45;3.65;;;;;;;12.27;78.52;101347.59;5064606;28;20057;-77
2023/03/29 09:41:42;;;;;;;8.50;3.88;;;;;;;12.57;77.36;101341.41;5077287;28;20061;-78
2023/03/29 09:44:19;;;;;;;9.25;4.00;;;;;;;12.73;76.92;101334.75;5101423;28;20045;-78
2023/03/29 09:47:25;;;;;;;6.13;3.72;;;;;;;12.90;76.75;101343.94;5057815;28;20053;-79
2023/03/29 09:50:09;;;;;;;9.93;3.90;;;;;;;13.00;75.39;101347.16;5069385;28;20044;-79
2023/03/29 09:52:54;;;;;;;6.85;3.42;;;;;;;12.94;75.61;101340.28;5064655;28;20119;-79
2023/03/29 09:55:29;;;;;;;8.55;3.60;;;;;;;13.01;75.55;101340.97;5085057;28;20124;-78
2023/03/29 09:58:30;;;;;;;6.35;3.78;;;;;;;12.98;75.61;101348.97;5051769;28;20067;-78
2023/03/29 10:01:01;;;;;;;10.00;4.25;;;;;;;12.86;75.46;101340.53;5068193;28;20052;-78
2023/03/29 10:03:33;;;;;;;16.25;4.30;;;;;;;12.76;75.53;101352.31;5064508;28;20769;-78
2023/03/29 10:06:13;;;;;;;7.57;4.13;;;;;;;12.67;75.83;101344.66;5062579;28;20041;-77
2023/03/29 10:08:51;;;;;;;7.45;3.80;;;;;;;12.65;76.38;101347.38;5070093;28;20045;-78
2023/03/29 10:11:27;;;;;;;8.23;3.75;;;;;;;12.63;76.46;101346.53;5060064;28;20045;-78
2023/03/29 10:14:10;;;;;;;9.32;3.85;;;;;;;12.57;76.57;101358.19;5068605;28;20041;-79
2023/03/29 10:16:40;;;;;;;10.02;4.35;;;;;;;12.58;76.59;101351.09;5069967;28;20119;-79
2023/03/29 10:19:15;;;;;;;7.80;3.58;;;;;;;12.61;76.24;101348.34;5068689;28;20047;-78
2023/03/29 10:21:42;;;;;;;7.22;3.80;;;;;;;12.61;76.18;101348.34;5050002;28;20049;-78
2023/03/29 10:24:10;;;;;;;7.53;3.60;;;;;;;12.67;76.55;101356.09;5054729;28;20029;-79
2023/03/29 10:26:37;;;;;;;7.82;4.20;;;;;;;12.67;76.83;101345.50;5062875;28;20033;-78
2023/03/29 10:29:07;;;;;;;7.53;3.72;;;;;;;12.76;77.14;101349.66;5069753;28;20115;-77
2023/03/29 10:31:40;;;;;;;5.97;3.78;;;;;;;12.78;77.29;101355.78;5067298;28;20116;-77
2023/03/29 10:34:14;;;;;;;5.05;3.30;;;;;;;12.68;77.20;101356.97;5069067;28;20084;-78
2023/03/29 10:36:52;;;;;;;9.07;4.53;;;;;;;12.50;77.07;101361.03;5068858;28;20116;-78
2023/03/29 10:39:19;;;;;;;6.28;3.92;;;;;;;12.32;77.17;101354.50;5069112;28;20055;-78
2023/03/29 10:41:51;;;;;;;7.65;4.30;;;;;;;12.21;77.80;101352.19;5068110;28;20107;-78
2023/03/29 10:44:30;;;;;;;7.75;4.22;;;;;;;12.18;78.08;101341.69;5067970;28;20045;-78
2023/03/29 10:47:20;;;;;;;9.48;4.10;;;;;;;12.10;78.51;101341.94;5068596;28;20056;-77
2023/03/29 10:49:57;;;;;;;9.55;4.38;;;;;;;11.98;79.02;101343.13;5069682;28;20040;-78
2023/03/29 10:52:25;;;;;;;12.70;4.75;;;;;;;11.86;79.44;101340.81;5069099;28;20045;-78
2023/03/29 10:54:55;;;;;;;8.25;4.72;;;;;;;11.77;79.75;101334.00;5068816;28;20048;-78
2023/03/29 10:57:40;;;;;;;8.27;4.88;;;;;;;11.78;79.96;101339.25;5067692;28;20047;-78
2023/03/29 11:00:26;;;;;;;9.82;5.03;;;;;;;11.77;80.65;101342.78;5067214;28;20107;-78
2023/03/29 11:03:21;;;;;;;7.25;4.70;;;;;;;11.92;80.73;101332.72;5067911;28;20037;-78
2023/03/29 11:06:35;;;;;;;7.47;4.60;;;;;;;12.16;81.34;101332.97;5065006;28;20047;-78
2023/03/29 11:09:41;;;;;;;6.15;4.57;;;;;;;12.37;81.49;101329.66;5067842;28;20556;-77
2023/03/29 11:12:33;;;;;;;7.05;4.30;;;;;;;12.56;81.01;101323.84;5070767;28;20049;-77
2023/03/29 11:15:46;;;;;;;8.07;4.95;;;;;;;12.66;81.16;101319.13;5065535;28;20041;-76
2023/03/29 11:19:05;;;;;;;9.35;5.28;;;;;;;12.92;80.95;101299.78;5069102;28;20128;-77
2023/03/29 11:21:48;;;;;;;6.93;4.65;;;;;;;13.25;80.85;101301.31;5069171;28;20045;-77
2023/03/29 11:24:36;;;;;;;7.05;4.95;;;;;;;13.58;80.43;101299.31;5068113;28;20056;-77
2023/03/29 11:27:12;;;;;;;8.13;4.47;;;;;;;13.91;80.20;101285.75;5066844;28;20108;-76
2023/03/29 11:30:14;;;;;;;7.05;4.40;;;;;;;14.16;78.86;101292.81;5067158;28;20041;-78
2023/03/29 11:33:07;;;;;;;8.73;4.68;;;;;;;14.29;78.35;101288.72;5077731;28;20041;-77
2023/03/29 11:36:00;;;;;;;6.90;4.40;;;;;;;14.38;78.20;101289.31;5086043;28;20076;-78
2023/03/29 11:38:36;;;;;;;11.63;4.60;;;;;;;14.50;77.92;101282.66;5067119;28;20075;-79
2023/03/29 11:41:28;;;;;;;5.68;3.97;;;;;;;14.55;77.37;101275.41;5068676;28;20612;-77
2023/03/29 11:44:10;;;;;;;7.28;4.00;;;;;;;14.55;76.73;101283.34;5066494;28;20033;-77
2023/03/29 11:47:09;;;;;;;7.25;4.13;;;;;;;14.65;76.74;101281.19;5068279;28;20045;-78
2023/03/29 11:49:56;;;;;;;7.63;4.40;;;;;;;14.69;76.54;101277.53;5068560;28;20037;-78
2023/03/29 11:52:32;;;;;;;6.93;4.55;;;;;;;14.70;76.62;101271.28;5068020;28;20045;-78
2023/03/29 11:55:18;;;;;;;8.90;4.90;;;;;;;14.67;76.65;101274.06;5067786;28;20037;-79
2023/03/29 11:58:04;;;;;;;6.28;4.20;;;;;;;14.60;76.55;101274.25;5067036;28;20045;-77
2023/03/29 12:00:39;;;;;;;8.07;4.50;;;;;;;14.45;76.61;101281.03;5067491;28;20103;-78
2023/03/29 12:03:39;;;;;;;8.07;4.38;;;;;;;14.45;76.69;101291.66;5067583;28;20104;-78
2023/03/29 12:06:21;;;;;;;8.60;5.15;;;;;;;14.47;77.21;101281.00;5055519;28;20940;-78
2023/03/29 12:09:33;;;;;;;9.00;4.22;;;;;;;14.55;76.87;101280.72;5047905;28;20037;-77
2023/03/29 12:12:28;;;;;;;8.63;4.18;;;;;;;14.69;75.75;101265.09;5046954;28;20041;-78
2023/03/29 12:15:05;;;;;;;6.40;4.50;;;;;;;14.86;75.90;101263.53;5046734;28;20048;-78
2023/03/29 12:17:50;;;;;;;6.97;4.55;;;;;;;15.08;75.35;101258.22;5048163;28;20049;-78
2023/03/29 12:20:25;;;;;;;8.32;4.10;;;;;;;15.24;75.03;101258.41;5064433;28;20045;-77
2023/03/29 12:22:54;;;;;;;6.93;3.50;;;;;;;15.40;75.23;101257.72;5087603;28;20052;-78